Time;durP1;ratioP1;P1;durP2;ratioP2;P2;SDS_P1;SDS_P2;PMS_P1;PMS_P2;Temp;Humidity;BMP_temperature;BMP_pressure;BME280_temperature;BME280_humidity;BME280_pressure;Samples;Min_cycle;Max_cycle;Signal;HPM_P1;HPM_P2
2022/10/05 00:11:40;;;;;;;6.12;3.37;;;;;;;12.07;85.57;101771.09;1958713;73;26442;-57
2022/10/05 00:14:24;;;;;;;6.97;3.12;;;;;;;12.02;85.72;101782.23;1918280;75;21056;-59
2022/10/05 00:16:53;;;;;;;6.75;3.50;;;;;;;12.03;86.30;101786.62;1916405;75;21470;-58
2022/10/05 00:19:24;;;;;;;8.00;3.40;;;;;;;12.03;86.93;101805.09;1918185;75;21028;-57
2022/10/05 00:21:53;;;;;;;7.50;3.80;;;;;;;12.03;87.10;101814.34;1886720;74;21575;-58
2022/10/05 00:24:23;;;;;;;16.07;4.83;;;;;;;12.06;87.26;101818.19;1897661;75;21486;-58
2022/10/05 00:26:52;;;;;;;16.48;6.72;;;;;;;12.05;87.34;101816.48;1892603;74;21067;-58
2022/10/05 00:29:24;;;;;;;25.92;14.98;;;;;;;12.07;87.27;101812.87;1889818;75;21067;-58
2022/10/05 00:31:53;;;;;;;28.92;18.52;;;;;;;12.10;87.33;101815.90;1915343;73;21016;-58
2022/10/05 00:34:22;;;;;;;25.85;15.90;;;;;;;12.12;87.09;101812.75;1904485;74;21059;-59
2022/10/05 00:36:50;;;;;;;14.13;7.78;;;;;;;12.12;87.03;101816.72;1885546;76;21059;-58
2022/10/05 00:39:19;;;;;;;11.70;7.72;;;;;;;12.12;87.02;101822.00;1903257;75;21036;-59
2022/10/05 00:42:10;;;;;;;15.65;10.50;;;;;;;12.13;86.97;101821.06;1918221;75;21048;-59
2022/10/05 00:44:54;;;;;;;9.08;6.60;;;;;;;12.14;86.72;101820.17;1910938;75;21068;-59
2022/10/05 00:47:43;;;;;;;9.30;5.10;;;;;;;12.14;86.46;101828.95;1888803;74;21036;-59
2022/10/05 00:50:44;;;;;;;10.10;5.80;;;;;;;12.14;86.40;101825.45;1906966;75;21145;-60
2022/10/05 00:53:33;;;;;;;6.22;4.00;;;;;;;12.14;86.34;101818.39;1918156;75;21000;-61
2022/10/05 00:56:13;;;;;;;9.35;3.40;;;;;;;12.12;86.53;101820.21;1917933;74;21036;-58
2022/10/05 00:59:28;;;;;;;8.20;3.52;;;;;;;12.10;86.67;101835.23;1957556;73;21102;-57
2022/10/05 01:02:12;;;;;;;8.05;3.65;;;;;;;12.07;86.92;101847.66;1957621;73;21150;-58
2022/10/05 01:04:46;;;;;;;8.08;3.50;;;;;;;12.02;87.10;101853.04;1957790;73;21037;-58
2022/10/05 01:07:42;;;;;;;6.55;3.30;;;;;;;11.97;87.31;101846.58;1911946;73;21417;-58
2022/10/05 01:10:26;;;;;;;7.83;3.22;;;;;;;11.94;87.53;101850.61;1877902;76;21037;-58
2022/10/05 01:13:06;;;;;;;6.72;2.80;;;;;;;11.92;87.49;101848.47;1869348;76;21546;-58
2022/10/05 01:15:44;;;;;;;6.92;3.33;;;;;;;11.91;87.69;101846.73;1926752;73;21557;-59
2022/10/05 01:18:28;;;;;;;6.22;3.17;;;;;;;11.91;87.95;101847.19;1927231;73;21472;-63
2022/10/05 01:27:02;;;;;;;10.85;2.80;;;;;;;12.03;86.76;101838.09;1958962;72;25791;-61
2022/10/05 01:29:39;;;;;;;4.58;2.80;;;;;;;11.98;86.52;101850.94;1918252;74;21129;-60
2022/10/05 01:32:29;;;;;;;8.73;3.12;;;;;;;12.00;86.46;101849.58;1917883;74;21104;-60
2022/10/05 01:35:17;;;;;;;8.58;3.70;;;;;;;12.02;86.41;101857.47;1918077;74;21268;-60
2022/10/05 01:37:49;;;;;;;13.98;8.38;;;;;;;12.04;86.30;101865.73;1885599;76;21109;-60
2022/10/05 01:40:44;;;;;;;19.50;11.53;;;;;;;12.05;86.46;101866.63;1884443;76;21137;-64
2022/10/05 01:43:27;;;;;;;19.57;9.10;;;;;;;12.07;86.38;101879.33;1885650;76;21148;-62
2022/10/05 01:46:21;;;;;;;16.15;8.35;;;;;;;12.09;86.27;101891.57;1884260;76;21521;-63
2022/10/05 01:48:52;;;;;;;17.05;7.17;;;;;;;12.09;86.52;101893.35;1885281;76;21045;-63
2022/10/05 01:51:47;;;;;;;10.80;4.70;;;;;;;12.08;86.48;101894.24;1885524;76;21109;-62
2022/10/05 01:54:35;;;;;;;19.10;10.80;;;;;;;12.08;86.49;101887.22;1885650;76;21516;-61
2022/10/05 01:57:10;;;;;;;15.65;9.80;;;;;;;12.08;86.41;101880.61;1885609;75;21478;-61
2022/10/05 02:00:03;;;;;;;28.35;15.03;;;;;;;12.09;86.19;101878.83;1885498;75;21137;-61
2022/10/05 02:02:36;;;;;;;25.80;11.88;;;;;;;12.08;86.04;101875.77;1886082;75;21125;-60
2022/10/05 02:05:20;;;;;;;17.92;7.78;;;;;;;12.08;85.90;101883.69;1885636;75;21036;-60
2022/10/05 02:07:54;;;;;;;14.13;7.35;;;;;;;12.06;85.82;101883.75;1885727;76;21079;-62
2022/10/05 02:10:25;;;;;;;14.85;6.47;;;;;;;12.04;85.77;101889.96;1885551;76;21549;-62
2022/10/05 02:13:15;;;;;;;19.00;8.00;;;;;;;12.02;85.75;101894.42;1905934;74;21026;-62
2022/10/05 02:15:50;;;;;;;23.00;14.68;;;;;;;12.00;85.71;101891.81;1890030;74;21152;-61
2022/10/05 02:18:22;;;;;;;15.38;9.20;;;;;;;12.00;85.69;101887.00;1924700;74;21038;-63
2022/10/05 02:20:53;;;;;;;12.88;6.85;;;;;;;11.97;85.68;101878.26;1924881;74;21061;-62
2022/10/05 02:23:28;;;;;;;22.20;11.30;;;;;;;11.96;85.67;101888.39;1924942;74;21124;-64
2022/10/05 02:26:00;;;;;;;18.32;9.43;;;;;;;11.96;85.60;101890.17;1924453;74;21067;-61
2022/10/05 02:28:45;;;;;;;21.87;10.93;;;;;;;11.94;85.58;101889.34;1925435;74;21149;-64
2022/10/05 02:31:24;;;;;;;;;;;;;;;11.95;85.56;101889.31;1928144;74;21129;-60
2022/10/05 02:36:42;;;;;;;73.33;25.27;;;;;;;11.98;85.21;101885.25;1874011;76;21163;-65
2022/10/05 02:39:20;;;;;;;146.15;43.50;;;;;;;12.00;85.09;101898.88;1873768;76;21416;-65
2022/10/05 02:42:01;;;;;;;16.90;7.15;;;;;;;12.00;85.17;101907.66;1873726;76;21081;-64
2022/10/05 02:44:57;;;;;;;14.75;6.80;;;;;;;12.02;85.14;101918.17;1858175;77;21069;-64
2022/10/05 02:47:29;;;;;;;6.10;3.55;;;;;;;12.04;85.12;101937.02;1873739;76;21048;-63
2022/10/05 02:50:01;;;;;;;8.08;3.15;;;;;;;12.07;85.06;101934.77;1856172;77;21142;-64
2022/10/05 02:52:35;;;;;;;7.47;3.67;;;;;;;12.08;85.10;101933.41;1906422;74;21041;-65
2022/10/05 02:55:19;;;;;;;7.45;3.70;;;;;;;12.09;85.13;101927.67;1905953;75;21068;-66
2022/10/05 02:57:58;;;;;;;5.97;2.20;;;;;;;12.10;85.08;101932.06;1906177;75;21037;-66
2022/10/05 03:00:30;;;;;;;6.83;2.60;;;;;;;12.07;85.06;101939.59;1906220;74;21177;-65
2022/10/05 03:03:05;;;;;;;7.47;2.15;;;;;;;12.05;85.01;101933.95;1906197;75;21060;-63
2022/10/05 03:05:39;;;;;;;7.12;2.55;;;;;;;12.06;84.99;101929.06;1905902;75;21492;-62
2022/10/05 03:08:20;;;;;;;8.10;2.20;;;;;;;12.06;84.99;101922.46;1905572;75;21499;-62
2022/10/05 03:11:24;;;;;;;8.60;2.90;;;;;;;12.05;85.00;101916.33;1906194;74;21201;-63
2022/10/05 03:14:17;;;;;;;13.00;2.67;;;;;;;12.04;85.00;101919.00;1858112;77;21554;-63
2022/10/05 03:17:01;;;;;;;8.78;3.90;;;;;;;12.05;84.97;101929.98;1856839;77;21133;-65
2022/10/05 03:19:50;;;;;;;32.15;13.28;;;;;;;12.07;84.82;101932.13;1872448;77;21553;-60
2022/10/05 03:22:28;;;;;;;21.33;8.85;;;;;;;12.09;84.70;101935.59;1872197;77;21155;-80
2022/10/05 03:25:05;;;;;;;13.93;5.50;;;;;;;12.11;84.59;101939.05;1855608;77;21070;-74
2022/10/05 03:27:46;;;;;;;9.40;3.95;;;;;;;12.12;84.54;101945.63;1860413;76;21096;-64
2022/10/05 03:30:18;;;;;;;9.53;3.70;;;;;;;12.13;84.50;101947.80;1854781;77;21061;-64
2022/10/05 03:32:58;;;;;;;6.25;3.10;;;;;;;12.14;84.45;101948.22;1855006;77;21114;-65
2022/10/05 03:35:33;;;;;;;6.30;2.75;;;;;;;12.14;84.40;101946.91;1789456;77;21163;-68
2022/10/05 03:38:14;;;;;;;8.23;3.40;;;;;;;12.13;84.43;101946.02;1843073;77;21143;-61
2022/10/05 03:41:03;;;;;;;9.43;3.20;;;;;;;12.13;84.48;101950.44;1843169;78;21093;-61
2022/10/05 03:43:44;;;;;;;13.50;5.15;;;;;;;12.12;84.55;101946.94;1842844;77;21487;-62
2022/10/05 03:46:34;;;;;;;17.20;6.15;;;;;;;12.13;84.57;101946.02;1857874;76;21597;-65
2022/10/05 03:49:27;;;;;;;19.30;6.78;;;;;;;12.15;84.52;101945.98;1781959;78;21136;-68
2022/10/05 03:52:04;;;;;;;17.02;6.67;;;;;;;12.18;84.44;101945.91;1896683;74;21003;-68
2022/10/05 03:54:39;;;;;;;12.93;5.30;;;;;;;12.18;84.43;101948.55;1876615;73;21690;-67
2022/10/05 03:57:20;;;;;;;11.22;4.30;;;;;;;12.21;84.40;101944.52;1901640;73;21162;-67
2022/10/05 04:00:11;;;;;;;9.58;4.72;;;;;;;12.21;84.34;101940.56;1901701;73;21541;-64
2022/10/05 04:21:38;;;;;;;20.23;7.53;;;;;;;12.30;84.16;101989.17;1872029;75;21042;-59
2022/10/05 04:24:22;;;;;;;17.35;7.20;;;;;;;12.31;84.10;101997.48;1887168;75;21071;-59
2022/10/05 04:26:57;;;;;;;23.80;8.95;;;;;;;12.34;84.29;102002.70;1861526;76;21603;-60
2022/10/05 04:29:33;;;;;;;15.48;6.45;;;;;;;12.36;84.38;101992.09;1881809;75;21258;-59
2022/10/05 04:32:07;;;;;;;18.62;7.17;;;;;;;12.37;84.45;101977.97;1865853;75;21015;-60
2022/10/05 04:35:06;;;;;;;13.72;6.53;;;;;;;12.40;84.52;101979.68;1850657;77;21055;-61
2022/10/05 04:38:00;;;;;;;15.80;6.15;;;;;;;12.42;84.54;102001.63;1810165;79;21575;-60
2022/10/05 04:40:35;;;;;;;11.05;5.87;;;;;;;12.43;84.58;102015.23;1846627;77;21513;-58
2022/10/05 04:46:19;;;;;;;15.68;6.90;;;;;;;12.49;84.57;102049.44;1823669;78;21147;-60
2022/10/05 04:48:59;;;;;;;19.65;6.30;;;;;;;12.51;84.50;102064.33;1787990;78;21060;-61
2022/10/05 04:51:52;;;;;;;9.00;5.28;;;;;;;12.53;84.49;102061.66;1787384;80;21156;-61
2022/10/05 04:54:45;;;;;;;12.55;5.03;;;;;;;12.54;84.47;102062.05;1766848;80;21117;-62
2022/10/05 04:57:21;;;;;;;17.62;7.30;;;;;;;12.57;84.42;102056.70;1791014;80;21538;-62
2022/10/05 05:00:22;;;;;;;11.43;4.97;;;;;;;12.59;84.40;102042.12;1839296;77;21559;-62
2022/10/05 05:02:57;;;;;;;12.85;6.25;;;;;;;12.58;84.47;102046.55;1809559;79;21070;-62
2022/10/05 05:08:45;;;;;;;11.28;5.95;;;;;;;12.63;84.53;102051.70;1802624;79;21081;-60
2022/10/05 05:11:31;;;;;;;;;;;;;;;12.63;84.54;102043.31;1822670;78;21194;-59
2022/10/05 05:14:14;;;;;;;15.13;7.62;;;;;;;12.66;84.52;102045.02;1821326;79;20202;-59
2022/10/05 05:16:43;;;;;;;;;;;;;;;12.65;84.41;102042.84;1824023;79;21105;-63
2022/10/05 05:19:19;;;;;;;12.25;5.90;;;;;;;12.67;84.36;102039.70;1820843;79;20192;-57
2022/10/05 05:21:51;;;;;;;9.75;5.15;;;;;;;12.67;84.17;102054.66;1819979;79;21089;-61
2022/10/05 05:24:43;;;;;;;11.83;5.05;;;;;;;12.66;84.17;102056.45;1809517;78;21105;-62
2022/10/05 05:27:24;;;;;;;14.18;5.62;;;;;;;12.66;84.20;102056.45;1811237;78;21140;-66
2022/10/05 05:30:06;;;;;;;9.78;5.12;;;;;;;12.63;84.32;102064.45;1817250;79;21735;-69
2022/10/05 05:32:53;;;;;;;7.92;4.28;;;;;;;12.63;84.45;102051.70;1800517;79;21096;-64
2022/10/05 05:35:48;;;;;;;8.45;4.75;;;;;;;12.64;84.51;102049.48;1800358;79;21549;-63
2022/10/05 05:38:32;;;;;;;9.98;4.65;;;;;;;12.66;84.44;102055.12;1800337;80;21083;-63
2022/10/05 05:41:10;;;;;;;11.25;4.97;;;;;;;12.67;84.40;102064.80;1800354;80;21153;-64
2022/10/05 05:43:59;;;;;;;7.72;4.53;;;;;;;12.68;84.48;102073.13;1817873;78;21070;-64
2022/10/05 05:46:38;;;;;;;8.80;4.35;;;;;;;12.70;84.54;102084.98;1817895;78;21525;-62
2022/10/05 05:49:25;;;;;;;10.03;4.40;;;;;;;12.69;84.59;102097.34;1814659;78;21480;-62
2022/10/05 05:51:57;;;;;;;9.58;4.40;;;;;;;12.69;84.63;102101.30;1785951;80;21078;-64
2022/10/05 05:54:32;;;;;;;11.18;5.00;;;;;;;12.67;84.74;102108.41;1791438;80;21238;-62
2022/10/05 05:57:12;;;;;;;9.48;5.03;;;;;;;12.68;84.76;102117.20;1791826;80;21073;-64
2022/10/05 05:59:51;;;;;;;10.78;4.62;;;;;;;12.67;84.85;102120.73;1786764;80;21051;-64
2022/10/05 06:02:23;;;;;;;8.25;4.12;;;;;;;12.65;84.95;102134.02;1790115;79;21073;-65
2022/10/05 06:05:01;;;;;;;8.33;3.98;;;;;;;12.64;85.08;102133.58;1794315;79;21140;-62
2022/10/05 06:07:31;;;;;;;9.65;4.28;;;;;;;12.65;85.16;102135.77;1803915;78;21107;-62
2022/10/05 06:10:17;;;;;;;6.35;3.83;;;;;;;12.68;85.20;102123.34;1783788;80;21078;-68
2022/10/05 06:12:50;;;;;;;9.20;3.85;;;;;;;12.73;85.13;102108.70;1814361;78;21556;-62
2022/10/05 06:15:34;;;;;;;7.83;3.77;;;;;;;12.79;84.94;102111.63;1789812;79;21071;-63
2022/10/05 06:18:12;;;;;;;6.95;3.90;;;;;;;12.86;84.85;102125.11;1814745;78;21595;-64
2022/10/05 06:21:00;;;;;;;9.15;4.05;;;;;;;12.92;84.74;102106.42;1800200;78;21063;-64
2022/10/05 06:23:39;;;;;;;17.67;7.90;;;;;;;13.00;84.63;102108.39;1824058;78;21091;-64
2022/10/05 06:26:27;;;;;;;8.10;3.90;;;;;;;13.05;84.65;102118.39;1817069;78;21483;-64
2022/10/05 06:29:07;;;;;;;8.88;4.30;;;;;;;13.08;84.64;102118.78;1809370;78;21136;-64
2022/10/05 06:31:48;;;;;;;8.28;3.77;;;;;;;13.10;84.70;102126.22;1791631;78;21170;-64
2022/10/05 06:34:43;;;;;;;5.20;3.35;;;;;;;13.10;84.61;102129.72;1780319;80;21090;-64
2022/10/05 06:37:17;;;;;;;7.90;3.08;;;;;;;13.12;84.48;102130.54;1815751;79;21489;-65
2022/10/05 06:40:16;;;;;;;4.00;2.22;;;;;;;13.12;84.30;102138.94;1827881;78;21446;-65
2022/10/05 06:42:48;;;;;;;5.60;2.60;;;;;;;13.12;84.16;102129.22;1763900;80;21078;-66
2022/10/05 06:45:43;;;;;;;6.95;2.83;;;;;;;13.18;83.95;102120.71;1828577;78;21161;-66
2022/10/05 06:48:20;;;;;;;4.58;2.62;;;;;;;13.23;83.76;102121.45;1785503;79;21097;-65
2022/10/05 06:51:29;;;;;;;16.95;4.75;;;;;;;13.28;83.59;102139.39;1778305;79;21143;-65
2022/10/05 06:54:26;;;;;;;14.25;3.65;;;;;;;13.30;83.45;102142.86;1825202;78;21132;-64
2022/10/05 06:57:06;;;;;;;11.57;3.10;;;;;;;13.31;83.30;102140.17;1814999;78;21042;-63
2022/10/05 06:59:44;;;;;;;8.43;1.90;;;;;;;13.34;83.13;102143.21;1809547;79;21028;-63
2022/10/05 07:02:37;;;;;;;4.80;2.22;;;;;;;13.38;82.92;102142.67;1829724;78;21026;-64
2022/10/05 07:05:27;;;;;;;2.60;1.75;;;;;;;13.39;82.66;102139.98;1846257;77;21130;-64
2022/10/05 07:08:17;;;;;;;3.45;1.90;;;;;;;13.45;82.44;102143.77;1815583;78;21580;-63
2022/10/05 07:11:04;;;;;;;5.22;1.82;;;;;;;13.50;82.19;102147.59;1829070;78;21079;-64
2022/10/05 07:13:39;;;;;;;6.50;2.30;;;;;;;13.58;82.03;102148.25;1799683;79;21058;-63
2022/10/05 07:16:26;;;;;;;4.80;1.82;;;;;;;13.70;81.87;102148.34;1823895;78;21086;-63
2022/10/05 07:19:05;;;;;;;3.62;1.70;;;;;;;13.75;81.64;102149.08;1824309;79;21087;-64
2022/10/05 07:21:45;;;;;;;4.42;1.62;;;;;;;13.80;81.43;102159.08;1793079;80;21043;-65
2022/10/05 07:24:23;;;;;;;6.25;2.67;;;;;;;13.86;81.26;102158.87;1821915;77;21594;-64
2022/10/05 07:27:03;;;;;;;5.37;2.70;;;;;;;13.95;81.02;102164.83;1817107;78;21183;-64
2022/10/05 07:29:38;;;;;;;3.75;1.72;;;;;;;14.02;80.92;102171.20;1791942;79;21087;-64
2022/10/05 07:32:17;;;;;;;3.80;1.92;;;;;;;14.06;80.67;102172.84;1804789;79;21056;-64
2022/10/05 07:34:51;;;;;;;3.02;1.70;;;;;;;14.05;80.46;102185.69;1784834;80;21062;-64
2022/10/05 07:40:27;;;;;;;5.85;1.90;;;;;;;14.08;80.36;102179.42;1808642;78;21492;-64
2022/10/05 07:43:05;;;;;;;4.50;2.00;;;;;;;14.09;80.31;102172.76;1818322;79;21134;-64
2022/10/05 07:45:49;;;;;;;4.65;2.22;;;;;;;14.10;80.25;102174.94;1833639;78;21204;-64
2022/10/05 07:48:23;;;;;;;4.50;2.10;;;;;;;14.10;80.22;102177.59;1831169;78;21041;-64
2022/10/05 07:50:58;;;;;;;;;;;;;;;14.10;80.18;102174.94;1824905;79;21041;-65
2022/10/05 07:53:42;;;;;;;3.70;2.02;;;;;;;14.12;80.15;102173.11;1834846;78;20128;-64
2022/10/05 07:56:17;;;;;;;9.33;4.00;;;;;;;14.13;80.00;102175.29;1837790;78;21031;-61
2022/10/05 07:58:48;;;;;;;23.38;9.80;;;;;;;14.17;79.89;102171.66;1826050;78;21030;-62
2022/10/05 08:01:35;;;;;;;29.30;11.43;;;;;;;14.24;79.81;102169.23;1832731;77;21030;-63
2022/10/05 08:04:07;;;;;;;27.73;8.93;;;;;;;14.32;79.74;102167.65;1845350;77;21531;-63
2022/10/05 08:06:51;;;;;;;15.78;6.15;;;;;;;14.46;79.59;102169.41;1782532;80;21058;-63
2022/10/05 08:09:23;;;;;;;;;;;;;;;14.63;79.40;102172.39;1830684;77;21079;-62
2022/10/05 08:12:11;;;;;;;13.83;5.40;;;;;;;14.91;79.13;102171.45;1823853;78;20115;-64
2022/10/05 08:15:04;;;;;;;13.95;5.70;;;;;;;15.18;78.86;102174.05;1786041;80;21064;-60
2022/10/05 08:18:01;;;;;;;7.63;3.67;;;;;;;15.51;78.63;102171.98;1756643;82;21172;-60
2022/10/05 08:20:33;;;;;;;6.85;3.45;;;;;;;15.96;78.16;102178.30;1817672;78;21222;-61
2022/10/05 08:23:22;;;;;;;4.45;2.85;;;;;;;16.61;77.23;102168.59;1827660;78;21088;-61
2022/10/05 08:26:06;;;;;;;5.95;2.80;;;;;;;16.95;76.29;102169.39;1823080;78;21493;-61
2022/10/05 08:28:42;;;;;;;9.13;3.90;;;;;;;17.83;74.53;102165.91;1824874;78;21105;-61
2022/10/05 08:31:25;;;;;;;4.85;2.22;;;;;;;17.96;73.84;102161.75;1791226;79;21064;-61
2022/10/05 08:34:19;;;;;;;5.58;2.62;;;;;;;18.23;73.35;102166.72;1783878;80;21091;-63
2022/10/05 08:36:59;;;;;;;5.15;2.55;;;;;;;18.59;72.58;102165.82;1815483;79;21075;-64
2022/10/05 08:39:33;;;;;;;3.75;2.12;;;;;;;19.63;70.13;102172.41;1781324;80;21071;-62
2022/10/05 08:42:20;;;;;;;1.98;1.40;;;;;;;21.13;67.83;102170.08;1809913;79;21108;-61
2022/10/05 08:45:09;;;;;;;3.92;1.90;;;;;;;22.26;65.45;102164.37;1809090;79;21135;-65
2022/10/05 08:47:50;;;;;;;5.58;1.85;;;;;;;23.36;61.74;102165.39;1779439;81;21121;-63
2022/10/05 08:50:45;;;;;;;3.15;1.50;;;;;;;24.03;58.98;102160.16;1814766;78;21068;-62
2022/10/05 08:53:51;;;;;;;3.35;1.92;;;;;;;24.82;56.79;102161.38;1824512;78;21102;-63
2022/10/05 08:56:40;;;;;;;2.22;1.10;;;;;;;25.54;54.85;102153.52;1846069;78;21552;-62
2022/10/05 09:06:32;;;;;;;2.58;1.10;;;;;;;25.40;51.07;102157.84;1973602;73;26319;-61
2022/10/05 09:09:39;;;;;;;1.65;0.88;;;;;;;24.23;52.19;102164.92;1912544;74;21059;-60
2022/10/05 09:12:27;;;;;;;3.27;1.52;;;;;;;23.87;52.91;102159.95;1918245;75;21052;-60
2022/10/05 09:15:11;;;;;;;7.70;2.67;;;;;;;24.48;52.29;102161.75;1915680;75;21039;-62
2022/10/05 09:18:16;;;;;;;2.10;1.30;;;;;;;23.72;51.88;102151.64;1914125;75;21071;-62
2022/10/05 09:20:53;;;;;;;7.05;1.92;;;;;;;23.15;52.57;102156.14;1915231;75;21015;-62
2022/10/05 09:23:39;;;;;;;5.20;2.72;;;;;;;23.29;52.13;102150.20;1915332;75;21116;-62
2022/10/05 09:26:28;;;;;;;3.30;0.85;;;;;;;24.23;50.71;102154.16;1918536;73;21113;-62
2022/10/05 09:29:23;;;;;;;3.45;1.30;;;;;;;25.17;49.16;102142.09;1939235;73;21148;-63
2022/10/05 09:32:17;;;;;;;5.05;1.40;;;;;;;25.65;47.68;102129.73;1915405;75;21545;-62
2022/10/05 09:34:55;;;;;;;4.35;1.92;;;;;;;26.02;46.96;102128.09;1918104;73;21082;-62
2022/10/05 09:37:43;;;;;;;3.58;1.10;;;;;;;25.41;45.66;102131.23;1917459;75;20989;-62
2022/10/05 09:40:20;;;;;;;2.85;1.10;;;;;;;25.96;45.21;102136.20;1917469;74;21440;-63
2022/10/05 09:43:01;;;;;;;10.98;4.37;;;;;;;26.23;44.43;102134.02;1915218;75;21071;-62
2022/10/05 09:45:47;;;;;;;4.70;1.60;;;;;;;26.09;44.43;102133.84;1918666;73;21000;-62
2022/10/05 09:48:39;;;;;;;2.87;1.20;;;;;;;25.68;45.17;102132.19;1915369;75;21446;-62
2022/10/05 09:51:10;;;;;;;1.10;0.75;;;;;;;25.55;45.16;102135.53;1912402;75;21069;-62
2022/10/05 09:54:06;;;;;;;4.35;0.80;;;;;;;24.97;45.24;102136.46;1913160;75;21494;-62
2022/10/05 09:56:40;;;;;;;0.75;0.42;;;;;;;24.20;46.49;102142.30;1915494;75;21541;-60
2022/10/05 09:59:33;;;;;;;0.90;0.60;;;;;;;23.39;47.25;102134.77;1913519;75;21557;-60
2022/10/05 10:02:23;;;;;;;1.82;0.55;;;;;;;22.96;48.07;102134.56;1928114;73;21032;-61
2022/10/05 10:05:19;;;;;;;1.70;0.55;;;;;;;22.86;48.40;102133.01;1916944;74;21059;-60
2022/10/05 10:08:21;;;;;;;2.58;0.50;;;;;;;22.29;48.18;102128.80;1909388;74;21419;-61
2022/10/05 10:11:14;;;;;;;2.10;0.70;;;;;;;22.03;48.70;102131.00;1905445;74;21020;-60
2022/10/05 10:13:58;;;;;;;0.70;0.43;;;;;;;21.49;49.05;102125.08;1908635;74;21115;-60
2022/10/05 10:16:54;;;;;;;2.30;0.60;;;;;;;20.92;49.79;102127.23;1907933;74;21052;-62
2022/10/05 10:19:43;;;;;;;2.85;0.88;;;;;;;20.60;50.56;102124.20;1901679;75;21144;-62
2022/10/05 10:22:17;;;;;;;0.90;0.55;;;;;;;20.35;51.15;102119.39;1914455;74;21458;-62
2022/10/05 10:24:58;;;;;;;2.65;0.62;;;;;;;20.21;51.70;102122.00;1917212;74;21040;-62
2022/10/05 10:27:48;;;;;;;4.03;0.70;;;;;;;20.03;52.13;102118.11;1895202;74;21056;-63
2022/10/05 10:30:39;;;;;;;0.95;0.80;;;;;;;19.96;52.35;102122.08;1873697;74;21131;-62
2022/10/05 10:33:34;;;;;;;4.65;0.68;;;;;;;19.81;52.31;102118.95;1908791;74;21095;-62
2022/10/05 10:36:12;;;;;;;1.05;0.70;;;;;;;19.74;52.41;102121.57;1933618;74;21650;-62
2022/10/05 10:38:57;;;;;;;1.22;0.40;;;;;;;19.61;52.27;102119.53;1915250;74;21032;-62
2022/10/05 10:41:37;;;;;;;2.98;1.12;;;;;;;19.50;52.23;102119.75;1905288;74;21545;-62
2022/10/05 10:44:42;;;;;;;0.78;0.68;;;;;;;19.43;52.16;102120.06;1903604;74;21260;-63
2022/10/05 10:47:19;;;;;;;1.00;0.80;;;;;;;19.42;51.69;102121.03;1903011;74;21043;-62
2022/10/05 10:50:12;;;;;;;1.50;1.10;;;;;;;19.54;51.62;102122.16;1905330;75;21568;-62
2022/10/05 10:52:59;;;;;;;2.57;0.43;;;;;;;19.80;51.70;102122.07;1858130;77;21131;-62
2022/10/05 10:55:50;;;;;;;0.53;0.53;;;;;;;20.02;51.53;102120.86;1895473;74;21194;-62
2022/10/05 10:58:49;;;;;;;0.50;0.42;;;;;;;20.36;51.23;102122.91;1905186;75;21483;-62
2022/10/05 11:01:26;;;;;;;1.37;0.62;;;;;;;20.64;50.64;102126.22;1910775;74;21641;-62
2022/10/05 11:04:17;;;;;;;0.60;0.50;;;;;;;20.97;50.01;102127.33;1901986;75;21035;-62
2022/10/05 11:07:07;;;;;;;1.27;0.65;;;;;;;21.49;49.65;102123.73;1904289;74;21494;-62
2022/10/05 11:10:00;;;;;;;1.02;0.68;;;;;;;21.78;49.32;102125.87;1932835;74;21017;-62
2022/10/05 11:12:50;;;;;;;1.15;0.75;;;;;;;21.59;48.46;102125.71;1935674;74;21110;-62
2022/10/05 11:15:38;;;;;;;1.52;0.50;;;;;;;21.30;48.57;102126.66;1933454;74;21610;-62
2022/10/05 11:18:33;;;;;;;0.68;0.50;;;;;;;21.28;48.72;102128.58;1918192;74;21164;-62
2022/10/05 11:21:21;;;;;;;1.75;0.80;;;;;;;21.00;48.17;102132.96;1902025;75;21471;-62
2022/10/05 11:24:23;;;;;;;0.93;0.60;;;;;;;21.07;48.57;102140.16;1901959;75;21546;-62
2022/10/05 11:26:55;;;;;;;3.52;0.80;;;;;;;21.14;48.29;102142.84;1902227;74;21064;-63
2022/10/05 11:29:45;;;;;;;8.70;1.20;;;;;;;21.00;48.02;102143.19;1906408;74;21036;-62
2022/10/05 11:32:37;;;;;;;1.42;0.50;;;;;;;21.13;48.36;102139.28;1803637;79;21087;-62
2022/10/05 11:35:24;;;;;;;1.27;0.45;;;;;;;21.14;48.44;102146.86;1935581;74;21020;-63
2022/10/05 11:38:17;;;;;;;0.80;0.40;;;;;;;20.93;48.31;102138.30;1924538;74;21121;-62
2022/10/05 11:40:57;;;;;;;1.27;0.40;;;;;;;20.59;47.90;102141.64;1902251;75;21091;-62
2022/10/05 11:43:47;;;;;;;0.55;0.40;;;;;;;20.48;48.39;102132.05;1902148;75;21591;-62
2022/10/05 11:46:50;;;;;;;3.12;0.50;;;;;;;20.43;48.43;102126.47;1902009;75;21068;-62
2022/10/05 11:49:24;;;;;;;0.50;0.50;;;;;;;20.54;48.77;102132.53;1904274;74;21035;-63
2022/10/05 11:52:01;;;;;;;1.22;0.40;;;;;;;20.69;48.73;102128.59;1902224;75;21473;-62
2022/10/05 11:54:51;;;;;;;0.68;0.53;;;;;;;20.63;48.67;102136.52;1901932;75;21155;-62
2022/10/05 11:57:27;;;;;;;0.42;0.30;;;;;;;20.66;48.64;102135.46;1901998;75;21015;-62
2022/10/05 12:00:13;;;;;;;1.20;0.50;;;;;;;20.76;48.71;102130.81;1903835;75;21005;-62
2022/10/05 12:03:12;;;;;;;2.77;0.50;;;;;;;20.78;48.61;102134.25;1902440;74;21634;-62
2022/10/05 12:05:59;;;;;;;1.95;0.60;;;;;;;20.64;48.00;102131.56;1901945;75;21718;-62
2022/10/05 12:08:47;;;;;;;0.78;0.42;;;;;;;20.41;48.28;102135.55;1901955;75;21091;-62
2022/10/05 12:11:34;;;;;;;2.67;0.90;;;;;;;20.30;47.86;102131.30;1903087;74;21044;-62
2022/10/05 12:14:08;;;;;;;3.08;0.72;;;;;;;20.10;48.08;102129.78;1901988;75;21134;-63
2022/10/05 12:16:43;;;;;;;1.02;0.50;;;;;;;20.03;48.17;102131.96;1900978;75;21197;-62
2022/10/05 12:19:18;;;;;;;0.90;0.57;;;;;;;19.89;48.25;102134.06;1902155;75;21125;-62
2022/10/05 12:22:00;;;;;;;2.47;0.70;;;;;;;19.85;48.39;102125.84;1905111;75;21133;-62
2022/10/05 12:24:37;;;;;;;1.57;0.60;;;;;;;19.83;48.18;102131.75;1903503;75;21044;-63
2022/10/05 12:27:15;;;;;;;1.77;0.53;;;;;;;19.87;48.46;102137.30;1904791;75;21008;-62
2022/10/05 12:29:52;;;;;;;1.45;0.65;;;;;;;19.92;48.44;102136.57;1905380;75;21036;-62
2022/10/05 12:32:30;;;;;;;2.55;0.93;;;;;;;19.97;48.49;102142.50;1901775;74;21560;-62
2022/10/05 12:35:10;;;;;;;1.12;0.70;;;;;;;19.92;48.44;102140.58;1902318;74;21044;-62
2022/10/05 12:37:59;;;;;;;2.62;0.70;;;;;;;19.80;48.18;102142.59;1838063;76;21053;-62
2022/10/05 12:40:34;;;;;;;2.52;0.80;;;;;;;19.80;48.44;102143.45;1901821;74;21595;-63
2022/10/05 12:43:14;;;;;;;4.62;0.98;;;;;;;19.80;48.65;102139.92;1901467;75;21071;-63
2022/10/05 12:45:49;;;;;;;2.67;0.75;;;;;;;19.80;48.78;102146.13;1901922;75;21486;-62
2022/10/05 12:48:55;;;;;;;1.98;1.00;;;;;;;19.64;48.30;102151.44;1901392;75;21087;-62
2022/10/05 12:51:44;;;;;;;3.20;1.20;;;;;;;19.48;48.26;102154.08;1901859;75;21110;-62
2022/10/05 12:54:25;;;;;;;0.70;0.60;;;;;;;19.36;48.16;102153.88;1901478;75;21110;-62
2022/10/05 12:56:59;;;;;;;1.32;0.60;;;;;;;19.21;48.28;102159.56;1901949;75;21036;-62
2022/10/05 12:59:46;;;;;;;0.68;0.50;;;;;;;19.24;48.65;102164.75;1900017;75;21123;-64
2022/10/05 13:02:33;;;;;;;2.52;1.40;;;;;;;19.18;48.82;102161.94;1924744;74;21028;-63
2022/10/05 13:05:10;;;;;;;1.52;0.62;;;;;;;19.13;49.03;102165.31;1893620;74;21527;-63
2022/10/05 13:07:44;;;;;;;4.03;1.50;;;;;;;19.02;49.21;102170.35;1935456;74;21534;-63
2022/10/05 13:10:28;;;;;;;1.40;0.75;;;;;;;18.98;49.48;102174.09;1906949;74;21131;-63
2022/10/05 13:13:03;;;;;;;;;;;;;;;18.94;49.58;102175.20;1904156;75;21443;-63
2022/10/05 13:15:50;;;;;;;2.37;0.60;;;;;;;18.85;49.37;102175.20;1900454;75;20107;-63
2022/10/05 13:18:43;;;;;;;1.80;0.72;;;;;;;18.79;49.60;102176.34;1901907;75;21086;-63
2022/10/05 13:21:14;;;;;;;2.90;0.90;;;;;;;18.72;49.77;102180.30;1888042;74;21114;-63
2022/10/05 13:24:01;;;;;;;8.65;0.90;;;;;;;18.73;49.91;102175.81;1935373;74;21040;-63
2022/10/05 13:26:35;;;;;;;3.10;0.90;;;;;;;18.73;49.77;102178.48;1935206;74;21134;-63
2022/10/05 13:29:23;;;;;;;4.97;1.65;;;;;;;18.69;49.76;102175.10;1924577;74;21603;-61
2022/10/05 13:31:55;;;;;;;5.30;1.10;;;;;;;18.67;49.75;102176.98;1909500;74;21032;-62